sensor_id;sensor_type;location;lat;lon;timestamp;pressure;altitude;pressure_sealevel;temperature;humidity
33163;BME280;29282;45.656;11.302;2023-09-19T00:00:46;97991.34;;;24.29;61.65
33163;BME280;29282;45.656;11.302;2023-09-19T00:03:12;97991.34;;;24.29;61.66
33163;BME280;29282;45.656;11.302;2023-09-19T00:05:38;97985.78;;;24.29;61.57
33163;BME280;29282;45.656;11.302;2023-09-19T00:08:04;97997.25;;;24.28;61.58
33163;BME280;29282;45.656;11.302;2023-09-19T00:10:32;97998.06;;;24.28;61.46
33163;BME280;29282;45.656;11.302;2023-09-19T00:13:00;97999.63;;;24.29;61.74
33163;BME280;29282;45.656;11.302;2023-09-19T00:15:31;97988.56;;;24.29;61.53
33163;BME280;29282;45.656;11.302;2023-09-19T00:18:00;97998.06;;;24.28;61.56
33163;BME280;29282;45.656;11.302;2023-09-19T00:20:26;98009.13;;;24.28;61.71
33163;BME280;29282;45.656;11.302;2023-09-19T00:22:52;97996.47;;;24.27;61.62
33163;BME280;29282;45.656;11.302;2023-09-19T00:25:19;97998.06;;;24.28;61.40
33163;BME280;29282;45.656;11.302;2023-09-19T00:27:45;98000.03;;;24.28;61.59
33163;BME280;29282;45.656;11.302;2023-09-19T00:30:16;97997.25;;;24.28;61.62
33163;BME280;29282;45.656;11.302;2023-09-19T00:32:47;98002.00;;;24.27;61.30
33163;BME280;29282;45.656;11.302;2023-09-19T00:35:14;98002.78;;;24.28;61.52
33163;BME280;29282;45.656;11.302;2023-09-19T00:37:40;98005.56;;;24.28;61.39
33163;BME280;29282;45.656;11.302;2023-09-19T00:40:10;97992.09;;;24.26;61.50
33163;BME280;29282;45.656;11.302;2023-09-19T00:42:47;98000.41;;;24.26;61.34
33163;BME280;29282;45.656;11.302;2023-09-19T00:45:14;97992.09;;;24.26;61.50
33163;BME280;29282;45.656;11.302;2023-09-19T00:47:48;97989.31;;;24.26;61.50
33163;BME280;29282;45.656;11.302;2023-09-19T00:50:16;97974.69;;;24.26;61.39
33163;BME280;29282;45.656;11.302;2023-09-19T00:52:43;97973.91;;;24.25;61.47
33163;BME280;29282;45.656;11.302;2023-09-19T00:55:10;97973.09;;;24.25;61.22
33163;BME280;29282;45.656;11.302;2023-09-19T00:57:37;97968.72;;;24.24;61.38
33163;BME280;29282;45.656;11.302;2023-09-19T01:00:04;97976.66;;;24.25;61.13
33163;BME280;29282;45.656;11.302;2023-09-19T01:02:32;97980.22;;;24.26;61.36
33163;BME280;29282;45.656;11.302;2023-09-19T01:04:58;97976.66;;;24.25;61.51
33163;BME280;29282;45.656;11.302;2023-09-19T01:07:24;97978.66;;;24.25;61.41
33163;BME280;29282;45.656;11.302;2023-09-19T01:09:50;97974.69;;;24.26;61.52
33163;BME280;29282;45.656;11.302;2023-09-19T01:12:22;97974.25;;;24.24;61.41
33163;BME280;29282;45.656;11.302;2023-09-19T01:14:59;97977.84;;;24.24;61.13
33163;BME280;29282;45.656;11.302;2023-09-19T01:17:33;97978.66;;;24.25;61.47
33163;BME280;29282;45.656;11.302;2023-09-19T01:28:43;97970.69;;;24.23;61.25
33163;BME280;29282;45.656;11.302;2023-09-19T01:31:09;97973.47;;;24.23;61.14
33163;BME280;29282;45.656;11.302;2023-09-19T01:34:01;97971.50;;;24.24;61.10
33163;BME280;29282;45.656;11.302;2023-09-19T01:36:34;97962.41;;;24.23;60.99
33163;BME280;29282;45.656;11.302;2023-09-19T01:39:05;97964.38;;;24.23;61.17
33163;BME280;29282;45.656;11.302;2023-09-19T01:42:02;97979.00;;;24.23;61.38
33163;BME280;29282;45.656;11.302;2023-09-19T01:45:02;97977.44;;;24.22;61.08
33163;BME280;29282;45.656;11.302;2023-09-19T01:47:33;97972.31;;;24.24;61.01
33163;BME280;29282;45.656;11.302;2023-09-19T01:50:11;97984.53;;;24.23;61.00
33163;BME280;29282;45.656;11.302;2023-09-19T01:52:49;97982.97;;;24.22;61.19
33163;BME280;29282;45.656;11.302;2023-09-19T01:55:17;97981.78;;;24.23;61.08
33163;BME280;29282;45.656;11.302;2023-09-19T01:57:52;97981.78;;;24.23;61.29
33163;BME280;29282;45.656;11.302;2023-09-19T02:00:21;97983.75;;;24.23;61.15
33163;BME280;29282;45.656;11.302;2023-09-19T02:02:49;97984.16;;;24.21;60.99
33163;BME280;29282;45.656;11.302;2023-09-19T02:05:25;97985.72;;;24.22;61.16
33163;BME280;29282;45.656;11.302;2023-09-19T02:07:52;97986.91;;;24.21;61.18
33163;BME280;29282;45.656;11.302;2023-09-19T02:10:24;97988.50;;;24.22;60.96
33163;BME280;29282;45.656;11.302;2023-09-19T02:12:50;97991.25;;;24.22;61.09
33163;BME280;29282;45.656;11.302;2023-09-19T02:15:16;97993.25;;;24.22;61.08
33163;BME280;29282;45.656;11.302;2023-09-19T02:17:43;97999.56;;;24.22;61.03
33163;BME280;29282;45.656;11.302;2023-09-19T02:20:10;98002.34;;;24.22;61.04
33163;BME280;29282;45.656;11.302;2023-09-19T02:22:36;97995.22;;;24.21;60.98
33163;BME280;29282;45.656;11.302;2023-09-19T02:25:02;97991.25;;;24.22;61.04
33163;BME280;29282;45.656;11.302;2023-09-19T02:27:30;97983.34;;;24.21;60.95
33163;BME280;29282;45.656;11.302;2023-09-19T02:29:56;97996.38;;;24.20;61.12
33163;BME280;29282;45.656;11.302;2023-09-19T02:32:21;97985.31;;;24.20;60.98
33163;BME280;29282;45.656;11.302;2023-09-19T02:34:48;97992.03;;;24.19;61.14
33163;BME280;29282;45.656;11.302;2023-09-19T02:37:14;97995.59;;;24.20;60.85
33163;BME280;29282;45.656;11.302;2023-09-19T02:39:41;97985.31;;;24.20;60.98
33163;BME280;29282;45.656;11.302;2023-09-19T02:42:07;97992.03;;;24.19;60.83
33163;BME280;29282;45.656;11.302;2023-09-19T02:44:32;97987.69;;;24.18;61.01
33163;BME280;29282;45.656;11.302;2023-09-19T02:46:59;97992.03;;;24.19;61.10
33163;BME280;29282;45.656;11.302;2023-09-19T02:49:25;97991.22;;;24.19;60.99
33163;BME280;29282;45.656;11.302;2023-09-19T02:51:50;97986.50;;;24.19;60.97
33163;BME280;29282;45.656;11.302;2023-09-19T02:54:17;97994.00;;;24.19;61.18
33163;BME280;29282;45.656;11.302;2023-09-19T02:56:43;97992.81;;;24.20;61.01
33163;BME280;29282;45.656;11.302;2023-09-19T02:59:09;97993.22;;;24.18;60.82
33163;BME280;29282;45.656;11.302;2023-09-19T03:01:38;97995.97;;;24.18;60.84
33163;BME280;29282;45.656;11.302;2023-09-19T03:04:04;97997.94;;;24.18;60.87
33163;BME280;29282;45.656;11.302;2023-09-19T03:06:33;98001.50;;;24.18;61.03
33163;BME280;29282;45.656;11.302;2023-09-19T03:08:59;98001.50;;;24.18;60.75
33163;BME280;29282;45.656;11.302;2023-09-19T03:11:28;98001.50;;;24.18;60.99
33163;BME280;29282;45.656;11.302;2023-09-19T03:13:54;97998.75;;;24.18;60.95
33163;BME280;29282;45.656;11.302;2023-09-19T03:16:20;97991.59;;;24.17;60.88
33163;BME280;29282;45.656;11.302;2023-09-19T03:18:50;97999.91;;;24.17;60.85
33163;BME280;29282;45.656;11.302;2023-09-19T03:21:16;97998.75;;;24.18;60.74
33163;BME280;29282;45.656;11.302;2023-09-19T03:23:43;97999.91;;;24.17;60.78
33163;BME280;29282;45.656;11.302;2023-09-19T03:26:12;98001.88;;;24.17;60.90
33163;BME280;29282;45.656;11.302;2023-09-19T03:28:38;97999.09;;;24.17;61.07
33163;BME280;29282;45.656;11.302;2023-09-19T03:31:07;97993.56;;;24.17;60.90
33163;BME280;29282;45.656;11.302;2023-09-19T03:33:33;97993.56;;;24.17;60.92
33163;BME280;29282;45.656;11.302;2023-09-19T03:36:00;97988.03;;;24.17;60.92
33163;BME280;29282;45.656;11.302;2023-09-19T03:38:28;97995.56;;;24.16;60.83
33163;BME280;29282;45.656;11.302;2023-09-19T03:40:54;97992.00;;;24.15;60.81
33163;BME280;29282;45.656;11.302;2023-09-19T03:43:20;97992.78;;;24.16;60.59
33163;BME280;29282;45.656;11.302;2023-09-19T03:45:48;97986.47;;;24.15;60.84
33163;BME280;29282;45.656;11.302;2023-09-19T03:48:14;97985.66;;;24.15;60.63
33163;BME280;29282;45.656;11.302;2023-09-19T03:50:40;97984.88;;;24.14;60.82
33163;BME280;29282;45.656;11.302;2023-09-19T03:53:05;97979.34;;;24.14;60.57
33163;BME280;29282;45.656;11.302;2023-09-19T03:55:32;97985.66;;;24.15;60.62
33163;BME280;29282;45.656;11.302;2023-09-19T03:58:03;97988.44;;;24.15;60.63
33163;BME280;29282;45.656;11.302;2023-09-19T04:00:29;97982.91;;;24.15;60.61
33163;BME280;29282;45.656;11.302;2023-09-19T04:02:55;97996.72;;;24.15;60.79
33163;BME280;29282;45.656;11.302;2023-09-19T04:05:24;97984.88;;;24.14;60.79
33163;BME280;29282;45.656;11.302;2023-09-19T04:07:49;97982.09;;;24.14;60.71
33163;BME280;29282;45.656;11.302;2023-09-19T04:10:18;97984.09;;;24.14;60.66
33163;BME280;29282;45.656;11.302;2023-09-19T04:12:54;97985.66;;;24.15;60.51
33163;BME280;29282;45.656;11.302;2023-09-19T04:15:20;97980.50;;;24.13;60.73
33163;BME280;29282;45.656;11.302;2023-09-19T04:17:51;97984.09;;;24.14;60.67
33163;BME280;29282;45.656;11.302;2023-09-19T04:20:18;97987.63;;;24.14;60.67
33163;BME280;29282;45.656;11.302;2023-09-19T04:22:45;97993.19;;;24.14;60.58
33163;BME280;29282;45.656;11.302;2023-09-19T04:25:11;97989.63;;;24.14;60.86
33163;BME280;29282;45.656;11.302;2023-09-19T04:27:36;97995.50;;;24.12;60.75
33163;BME280;29282;45.656;11.302;2023-09-19T04:30:07;97994.34;;;24.13;60.50
33163;BME280;29282;45.656;11.302;2023-09-19T04:32:37;97999.88;;;24.13;60.69
33163;BME280;29282;45.656;11.302;2023-09-19T04:35:05;97999.88;;;24.13;60.63
33163;BME280;29282;45.656;11.302;2023-09-19T04:37:36;97995.50;;;24.12;60.72
33163;BME280;29282;45.656;11.302;2023-09-19T04:40:03;98003.81;;;24.12;60.62
33163;BME280;29282;45.656;11.302;2023-09-19T04:42:31;98006.59;;;24.12;60.74
33163;BME280;29282;45.656;11.302;2023-09-19T04:44:56;98003.03;;;24.12;60.83
33163;BME280;29282;45.656;11.302;2023-09-19T04:47:22;98009.34;;;24.12;60.65
33163;BME280;29282;45.656;11.302;2023-09-19T04:49:47;98005.00;;;24.11;60.47
33163;BME280;29282;45.656;11.302;2023-09-19T04:52:13;98006.16;;;24.10;60.39
33163;BME280;29282;45.656;11.302;2023-09-19T04:54:40;98012.91;;;24.13;60.47
33163;BME280;29282;45.656;11.302;2023-09-19T04:57:06;98007.78;;;24.11;60.52
33163;BME280;29282;45.656;11.302;2023-09-19T04:59:32;98012.50;;;24.11;60.71
33163;BME280;29282;45.656;11.302;2023-09-19T05:01:58;98024.38;;;24.11;60.70
33163;BME280;29282;45.656;11.302;2023-09-19T05:04:24;98016.44;;;24.10;60.70
33163;BME280;29282;45.656;11.302;2023-09-19T05:06:49;98023.59;;;24.11;60.51
33163;BME280;29282;45.656;11.302;2023-09-19T05:09:16;98029.13;;;24.11;60.63
33163;BME280;29282;45.656;11.302;2023-09-19T05:11:45;98036.59;;;24.10;60.66
33163;BME280;29282;45.656;11.302;2023-09-19T05:14:14;98037.44;;;24.11;60.60
33163;BME280;29282;45.656;11.302;2023-09-19T05:16:40;98050.44;;;24.10;60.51
33163;BME280;29282;45.656;11.302;2023-09-19T05:19:05;98051.25;;;24.11;60.60
33163;BME280;29282;45.656;11.302;2023-09-19T05:21:31;98056.81;;;24.11;60.60
33163;BME280;29282;45.656;11.302;2023-09-19T05:23:58;98052.41;;;24.10;60.57
33163;BME280;29282;45.656;11.302;2023-09-19T05:26:24;98047.28;;;24.08;60.71
33163;BME280;29282;45.656;11.302;2023-09-19T05:28:50;98059.94;;;24.09;60.52
33163;BME280;29282;45.656;11.302;2023-09-19T05:31:15;98057.56;;;24.08;60.34
33163;BME280;29282;45.656;11.302;2023-09-19T05:33:42;98058.34;;;24.08;60.38
33163;BME280;29282;45.656;11.302;2023-09-19T05:36:07;98061.13;;;24.08;60.39
33163;BME280;29282;45.656;11.302;2023-09-19T05:38:36;98063.50;;;24.10;60.69
33163;BME280;29282;45.656;11.302;2023-09-19T05:41:02;98065.47;;;24.09;60.42
33163;BME280;29282;45.656;11.302;2023-09-19T05:43:27;98068.22;;;24.09;60.50
33163;BME280;29282;45.656;11.302;2023-09-19T05:45:53;98065.47;;;24.09;60.31
33163;BME280;29282;45.656;11.302;2023-09-19T05:48:21;98077.31;;;24.10;60.51
33163;BME280;29282;45.656;11.302;2023-09-19T05:50:47;98073.78;;;24.09;60.43
33163;BME280;29282;45.656;11.302;2023-09-19T05:53:14;98072.59;;;24.10;60.68
33163;BME280;29282;45.656;11.302;2023-09-19T05:55:40;98077.31;;;24.10;60.62
33163;BME280;29282;45.656;11.302;2023-09-19T05:58:06;98071.00;;;24.09;60.51
33163;BME280;29282;45.656;11.302;2023-09-19T06:00:32;98080.09;;;24.10;60.49
33163;BME280;29282;45.656;11.302;2023-09-19T06:02:58;98079.31;;;24.09;60.55
33163;BME280;29282;45.656;11.302;2023-09-19T06:05:25;98088.41;;;24.10;60.46
33163;BME280;29282;45.656;11.302;2023-09-19T06:07:57;98089.19;;;24.10;60.48
33163;BME280;29282;45.656;11.302;2023-09-19T06:10:26;98087.59;;;24.09;60.33
33163;BME280;29282;45.656;11.302;2023-09-19T06:12:52;98078.50;;;24.09;60.41
33163;BME280;29282;45.656;11.302;2023-09-19T06:15:18;98084.84;;;24.09;60.59
33163;BME280;29282;45.656;11.302;2023-09-19T06:17:54;98076.97;;;24.11;60.25
33163;BME280;29282;45.656;11.302;2023-09-19T06:20:24;98083.72;;;24.14;60.43
33163;BME280;29282;45.656;11.302;2023-09-19T06:22:50;98083.28;;;24.12;60.68
33163;BME280;29282;45.656;11.302;2023-09-19T06:25:16;98091.59;;;24.12;60.49
33163;BME280;29282;45.656;11.302;2023-09-19T06:27:49;98100.25;;;24.10;60.71
33163;BME280;29282;45.656;11.302;2023-09-19T06:30:17;98099.47;;;24.10;60.67
33163;BME280;29282;45.656;11.302;2023-09-19T06:32:43;98101.03;;;24.07;60.47
33163;BME280;29282;45.656;11.302;2023-09-19T06:35:13;98107.72;;;24.06;60.47
33163;BME280;29282;45.656;11.302;2023-09-19T06:37:39;98112.47;;;24.06;60.34
33163;BME280;29282;45.656;11.302;2023-09-19T06:40:09;98119.19;;;24.05;60.28
33163;BME280;29282;45.656;11.302;2023-09-19T06:42:43;98113.66;;;24.05;60.50
33163;BME280;29282;45.656;11.302;2023-09-19T06:45:13;98119.56;;;24.03;60.36
33163;BME280;29282;45.656;11.302;2023-09-19T06:47:46;98121.16;;;24.04;60.28
33163;BME280;29282;45.656;11.302;2023-09-19T06:50:22;98121.16;;;24.04;60.25
33163;BME280;29282;45.656;11.302;2023-09-19T06:52:49;98139.34;;;24.05;60.19
33163;BME280;29282;45.656;11.302;2023-09-19T06:55:19;98139.31;;;24.02;60.24
33163;BME280;29282;45.656;11.302;2023-09-19T06:57:45;98132.50;;;23.96;60.29
33163;BME280;29282;45.656;11.302;2023-09-19T07:00:12;98135.34;;;23.73;59.16
33163;BME280;29282;45.656;11.302;2023-09-19T07:02:45;98152.59;;;22.70;62.33
33163;BME280;29282;45.656;11.302;2023-09-19T07:05:11;98143.13;;;22.29;63.00
33163;BME280;29282;45.656;11.302;2023-09-19T07:07:36;98147.84;;;22.28;62.27
33163;BME280;29282;45.656;11.302;2023-09-19T07:10:03;98156.34;;;21.85;62.85
33163;BME280;29282;45.656;11.302;2023-09-19T07:12:31;98157.34;;;21.76;62.68
33163;BME280;29282;45.656;11.302;2023-09-19T07:14:58;98153.31;;;21.90;62.12
33163;BME280;29282;45.656;11.302;2023-09-19T07:17:23;98164.50;;;21.97;62.27
33163;BME280;29282;45.656;11.302;2023-09-19T07:19:49;98164.03;;;22.30;61.58
33163;BME280;29282;45.656;11.302;2023-09-19T07:22:15;98170.72;;;22.48;60.78
33163;BME280;29282;45.656;11.302;2023-09-19T07:24:41;98161.59;;;22.67;60.67
33163;BME280;29282;45.656;11.302;2023-09-19T07:27:09;98175.00;;;22.46;61.23
33163;BME280;29282;45.656;11.302;2023-09-19T07:29:35;98179.56;;;22.58;60.63
33163;BME280;29282;45.656;11.302;2023-09-19T07:32:00;98184.00;;;22.23;61.53
33163;BME280;29282;45.656;11.302;2023-09-19T07:34:26;98194.06;;;22.74;60.50
33163;BME280;29282;45.656;11.302;2023-09-19T07:36:51;98188.19;;;22.95;60.00
33163;BME280;29282;45.656;11.302;2023-09-19T07:39:20;98188.25;;;22.79;60.23
33163;BME280;29282;45.656;11.302;2023-09-19T07:41:45;98189.00;;;22.95;60.04
33163;BME280;29282;45.656;11.302;2023-09-19T07:44:11;98191.31;;;22.93;60.10
33163;BME280;29282;45.656;11.302;2023-09-19T07:46:37;98201.09;;;22.91;60.34
33163;BME280;29282;45.656;11.302;2023-09-19T07:49:02;98202.06;;;22.98;60.16
33163;BME280;29282;45.656;11.302;2023-09-19T07:51:28;98191.06;;;22.60;61.14
33163;BME280;29282;45.656;11.302;2023-09-19T07:53:53;98196.13;;;22.38;61.73
33163;BME280;29282;45.656;11.302;2023-09-19T07:56:20;98187.41;;;22.75;60.56
33163;BME280;29282;45.656;11.302;2023-09-19T07:58:46;98188.22;;;23.18;59.40
33163;BME280;29282;45.656;11.302;2023-09-19T08:01:12;98191.22;;;23.32;59.43
33163;BME280;29282;45.656;11.302;2023-09-19T08:03:38;98198.81;;;23.39;59.16
33163;BME280;29282;45.656;11.302;2023-09-19T08:06:06;98191.47;;;23.50;58.96
33163;BME280;29282;45.656;11.302;2023-09-19T08:08:33;98202.34;;;23.62;58.57
33163;BME280;29282;45.656;11.302;2023-09-19T08:11:03;98209.13;;;23.65;58.72
33163;BME280;29282;45.656;11.302;2023-09-19T08:13:37;98201.69;;;23.69;58.49
33163;BME280;29282;45.656;11.302;2023-09-19T08:16:04;98202.50;;;23.70;58.63
33163;BME280;29282;45.656;11.302;2023-09-19T08:18:30;98210.47;;;23.75;58.66
33163;BME280;29282;45.656;11.302;2023-09-19T08:20:55;98204.94;;;23.75;58.56
33163;BME280;29282;45.656;11.302;2023-09-19T08:23:24;98210.47;;;23.75;58.86
33163;BME280;29282;45.656;11.302;2023-09-19T08:25:49;98210.47;;;23.75;58.60
33163;BME280;29282;45.656;11.302;2023-09-19T08:28:15;98214.44;;;23.77;59.09
33163;BME280;29282;45.656;11.302;2023-09-19T08:30:45;98215.31;;;23.81;58.73
33163;BME280;29282;45.656;11.302;2023-09-19T08:33:11;98219.19;;;23.54;60.04
33163;BME280;29282;45.656;11.302;2023-09-19T08:35:36;98223.03;;;23.68;59.43
33163;BME280;29282;45.656;11.302;2023-09-19T08:38:03;98219.19;;;23.77;58.99
33163;BME280;29282;45.656;11.302;2023-09-19T08:40:33;98215.75;;;23.60;59.93
33163;BME280;29282;45.656;11.302;2023-09-19T08:43:01;98221.22;;;23.57;60.17
33163;BME280;29282;45.656;11.302;2023-09-19T08:45:28;98228.97;;;23.71;59.91
33163;BME280;29282;45.656;11.302;2023-09-19T08:50:33;98231.44;;;23.53;60.13
33163;BME280;29282;45.656;11.302;2023-09-19T08:53:10;98227.03;;;23.71;59.77
33163;BME280;29282;45.656;11.302;2023-09-19T08:55:37;98228.41;;;23.84;59.56
33163;BME280;29282;45.656;11.302;2023-09-19T08:58:10;98235.16;;;23.87;59.62
33163;BME280;29282;45.656;11.302;2023-09-19T09:00:36;98229.34;;;23.69;60.16
33163;BME280;29282;45.656;11.302;2023-09-19T09:03:03;98223.97;;;23.80;59.80
33163;BME280;29282;45.656;11.302;2023-09-19T09:05:32;98223.97;;;23.80;60.00
33163;BME280;29282;45.656;11.302;2023-09-19T09:08:00;98223.97;;;23.80;60.09
33163;BME280;29282;45.656;11.302;2023-09-19T09:10:27;98230.00;;;23.85;59.87
33163;BME280;29282;45.656;11.302;2023-09-19T09:12:54;98232.22;;;23.76;60.37
33163;BME280;29282;45.656;11.302;2023-09-19T09:15:26;98235.53;;;23.85;60.07
33163;BME280;29282;45.656;11.302;2023-09-19T09:17:54;98234.75;;;23.85;60.11
33163;BME280;29282;45.656;11.302;2023-09-19T09:20:21;98243.16;;;23.92;59.96
33163;BME280;29282;45.656;11.302;2023-09-19T09:22:53;98242.81;;;23.97;60.03
33163;BME280;29282;45.656;11.302;2023-09-19T09:25:19;98237.28;;;23.97;60.13
33163;BME280;29282;45.656;11.302;2023-09-19T09:28:07;98241.66;;;23.98;59.86
33163;BME280;29282;45.656;11.302;2023-09-19T09:30:36;98246.44;;;24.01;59.96
33163;BME280;29282;45.656;11.302;2023-09-19T09:33:12;98244.09;;;24.03;59.87
33163;BME280;29282;45.656;11.302;2023-09-19T09:35:58;98237.81;;;24.06;59.76
33163;BME280;29282;45.656;11.302;2023-09-19T09:38:43;98231.03;;;24.04;60.00
33163;BME280;29282;45.656;11.302;2023-09-19T09:41:10;98227.53;;;24.07;60.28
33163;BME280;29282;45.656;11.302;2023-09-19T09:43:40;98237.81;;;24.06;60.33
33163;BME280;29282;45.656;11.302;2023-09-19T09:46:19;98235.78;;;24.03;60.48
33163;BME280;29282;45.656;11.302;2023-09-19T09:51:50;98233.94;;;24.11;61.07
33163;BME280;29282;45.656;11.302;2023-09-19T09:54:28;98237.84;;;24.10;60.83
33163;BME280;29282;45.656;11.302;2023-09-19T09:57:00;98234.72;;;24.11;60.92
33163;BME280;29282;45.656;11.302;2023-09-19T09:59:58;98236.75;;;24.14;60.52
33163;BME280;29282;45.656;11.302;2023-09-19T10:02:35;98231.28;;;24.18;60.52
33163;BME280;29282;45.656;11.302;2023-09-19T10:05:21;98232.41;;;24.17;60.43
33163;BME280;29282;45.656;11.302;2023-09-19T10:07:52;98227.75;;;24.21;60.36
33163;BME280;29282;45.656;11.302;2023-09-19T10:10:44;98221.47;;;24.24;60.37
33163;BME280;29282;45.656;11.302;2023-09-19T10:13:20;98223.00;;;24.22;60.19
33163;BME280;29282;45.656;11.302;2023-09-19T10:15:51;98222.63;;;24.23;60.30
33163;BME280;29282;45.656;11.302;2023-09-19T10:18:26;98225.38;;;24.23;60.16
33163;BME280;29282;45.656;11.302;2023-09-19T10:20:53;98227.78;;;24.25;60.05
33163;BME280;29282;45.656;11.302;2023-09-19T10:23:21;98223.06;;;24.25;59.97
33163;BME280;29282;45.656;11.302;2023-09-19T10:25:52;98229.44;;;24.29;60.07
33163;BME280;29282;45.656;11.302;2023-09-19T10:28:18;98228.25;;;24.30;60.01
33163;BME280;29282;45.656;11.302;2023-09-19T10:30:53;98229.47;;;24.33;59.85
33163;BME280;29282;45.656;11.302;2023-09-19T10:33:21;98229.88;;;24.31;60.09
33163;BME280;29282;45.656;11.302;2023-09-19T10:35:48;98229.88;;;24.31;59.91
33163;BME280;29282;45.656;11.302;2023-09-19T10:38:18;98224.69;;;24.30;59.98
33163;BME280;29282;45.656;11.302;2023-09-19T10:40:50;98229.13;;;24.34;59.58
33163;BME280;29282;45.656;11.302;2023-09-19T10:43:17;98227.88;;;24.32;59.68
33163;BME280;29282;45.656;11.302;2023-09-19T10:45:44;98225.91;;;24.32;59.55
33163;BME280;29282;45.656;11.302;2023-09-19T10:48:12;98226.34;;;24.34;59.47
33163;BME280;29282;45.656;11.302;2023-09-19T10:50:55;98220.41;;;24.36;58.92
33163;BME280;29282;45.656;11.302;2023-09-19T10:53:26;98220.81;;;24.34;59.21
33163;BME280;29282;45.656;11.302;2023-09-19T10:55:56;98218.41;;;24.33;59.20
33163;BME280;29282;45.656;11.302;2023-09-19T10:58:29;98215.69;;;24.36;59.28
33163;BME280;29282;45.656;11.302;2023-09-19T11:00:59;98218.09;;;24.38;59.02
33163;BME280;29282;45.656;11.302;2023-09-19T11:03:43;98218.44;;;24.36;58.00
33163;BME280;29282;45.656;11.302;2023-09-19T11:06:17;98221.97;;;24.33;57.91
33163;BME280;29282;45.656;11.302;2023-09-19T11:08:59;98218.41;;;24.33;57.24
33163;BME280;29282;45.656;11.302;2023-09-19T11:11:40;98217.13;;;24.27;57.64
33163;BME280;29282;45.656;11.302;2023-09-19T11:30:50;98210.69;;;24.46;58.01
33163;BME280;29282;45.656;11.302;2023-09-19T11:33:32;98201.25;;;24.50;57.56
33163;BME280;29282;45.656;11.302;2023-09-19T11:36:17;98209.13;;;24.48;56.99
33163;BME280;29282;45.656;11.302;2023-09-19T11:46:30;98209.47;;;24.77;56.70
33163;BME280;29282;45.656;11.302;2023-09-19T11:49:09;98208.50;;;24.62;56.79
33163;BME280;29282;45.656;11.302;2023-09-19T11:51:41;98213.63;;;24.60;56.74
33163;BME280;29282;45.656;11.302;2023-09-19T11:54:11;98218.63;;;24.47;57.18
33163;BME280;29282;45.656;11.302;2023-09-19T11:56:53;98202.94;;;24.58;56.61
33163;BME280;29282;45.656;11.302;2023-09-19T11:59:28;98211.63;;;24.57;56.92
33163;BME280;29282;45.656;11.302;2023-09-19T12:02:01;98195.44;;;24.63;57.10
33163;BME280;29282;45.656;11.302;2023-09-19T12:04:39;98200.84;;;24.85;56.32
33163;BME280;29282;45.656;11.302;2023-09-19T12:07:09;98186.81;;;24.68;56.57
33163;BME280;29282;45.656;11.302;2023-09-19T12:09:45;98192.13;;;24.83;56.33
33163;BME280;29282;45.656;11.302;2023-09-19T12:12:25;98197.34;;;24.55;56.30
33163;BME280;29282;45.656;11.302;2023-09-19T12:14:56;98199.41;;;24.61;56.05
33163;BME280;29282;45.656;11.302;2023-09-19T12:17:39;98192.38;;;24.71;56.27
33163;BME280;29282;45.656;11.302;2023-09-19T12:20:10;98201.41;;;24.65;56.20
33163;BME280;29282;45.656;11.302;2023-09-19T12:22:43;98195.13;;;24.68;55.81
33163;BME280;29282;45.656;11.302;2023-09-19T12:25:10;98196.13;;;24.52;56.03
33163;BME280;29282;45.656;11.302;2023-09-19T12:27:47;98185.09;;;24.56;55.89
33163;BME280;29282;45.656;11.302;2023-09-19T12:30:16;98181.28;;;24.68;55.61
33163;BME280;29282;45.656;11.302;2023-09-19T12:32:46;98187.50;;;24.57;56.01
33163;BME280;29282;45.656;11.302;2023-09-19T12:35:32;98194.91;;;24.50;56.54
33163;BME280;29282;45.656;11.302;2023-09-19T12:38:01;98190.50;;;24.45;56.90
33163;BME280;29282;45.656;11.302;2023-09-19T12:40:26;98185.34;;;24.44;56.46
33163;BME280;29282;45.656;11.302;2023-09-19T12:42:58;98182.94;;;24.42;56.70
33163;BME280;29282;45.656;11.302;2023-09-19T12:45:25;98192.72;;;24.36;56.95
33163;BME280;29282;45.656;11.302;2023-09-19T12:48:22;98196.22;;;24.29;57.24
33163;BME280;29282;45.656;11.302;2023-09-19T12:51:11;98183.75;;;24.43;56.75
33163;BME280;29282;45.656;11.302;2023-09-19T12:53:57;98183.84;;;24.53;56.16
33163;BME280;29282;45.656;11.302;2023-09-19T12:56:23;98183.47;;;24.51;55.87
33163;BME280;29282;45.656;11.302;2023-09-19T12:58:56;98181.47;;;24.52;56.49
33163;BME280;29282;45.656;11.302;2023-09-19T13:01:25;98183.09;;;24.56;56.20
33163;BME280;29282;45.656;11.302;2023-09-19T13:04:15;98180.81;;;24.62;56.15
33163;BME280;29282;45.656;11.302;2023-09-19T13:06:48;98174.06;;;24.63;56.05
33163;BME280;29282;45.656;11.302;2023-09-19T13:09:15;98178.47;;;24.64;55.82
33163;BME280;29282;45.656;11.302;2023-09-19T13:11:42;98177.78;;;24.74;55.17
33163;BME280;29282;45.656;11.302;2023-09-19T13:14:16;98180.91;;;24.73;55.65
33163;BME280;29282;45.656;11.302;2023-09-19T13:17:01;98180.81;;;24.62;56.49
33163;BME280;29282;45.656;11.302;2023-09-19T13:19:35;98184.69;;;24.54;56.43
33163;BME280;29282;45.656;11.302;2023-09-19T13:22:01;98183.06;;;24.53;56.08
33163;BME280;29282;45.656;11.302;2023-09-19T13:24:28;98195.72;;;24.50;55.99
33163;BME280;29282;45.656;11.302;2023-09-19T13:26:56;98189.31;;;24.46;56.40
33163;BME280;29282;45.656;11.302;2023-09-19T13:29:22;98191.72;;;24.48;56.14
33163;BME280;29282;45.656;11.302;2023-09-19T13:31:48;98186.16;;;24.44;56.00
33163;BME280;29282;45.656;11.302;2023-09-19T13:34:15;98191.72;;;24.48;55.73
33163;BME280;29282;45.656;11.302;2023-09-19T13:36:44;98190.53;;;24.49;56.23
33163;BME280;29282;45.656;11.302;2023-09-19T13:39:09;98188.56;;;24.49;56.17
33163;BME280;29282;45.656;11.302;2023-09-19T13:41:38;98193.31;;;24.49;56.33